createdAt,value
2018-02-06T00:02:00.018Z,1.28
2018-02-06T00:04:28.367Z,1.33
2018-02-06T00:06:57.277Z,1.26
2018-02-06T00:09:25.759Z,1.35
2018-02-06T00:11:54.848Z,1.46
2018-02-06T00:14:23.653Z,1.38
2018-02-06T00:16:51.979Z,1.38
2018-02-06T00:19:20.273Z,1.25
2018-02-06T00:21:48.627Z,1.38
2018-02-06T00:24:16.956Z,1.38
2018-02-06T00:26:46.054Z,0.86
2018-02-06T00:29:15.292Z,0.89
2018-02-06T00:31:43.613Z,1.03
2018-02-06T00:34:12.250Z,1.13
2018-02-06T00:36:40.848Z,1.20
2018-02-06T00:39:10.144Z,0.91
2018-02-06T00:41:38.435Z,1.01
2018-02-06T00:44:06.789Z,1.02
2018-02-06T00:46:35.094Z,1.15
2018-02-06T00:49:03.405Z,1.06
2018-02-06T00:51:31.826Z,1.21
2018-02-06T00:54:00.911Z,1.11
2018-02-06T00:56:29.318Z,1.14
2018-02-06T00:58:57.694Z,1.21
2018-02-06T01:01:26.037Z,1.30
2018-02-06T01:03:54.554Z,1.40
2018-02-06T01:06:22.892Z,1.11
2018-02-06T01:08:51.997Z,1.21
2018-02-06T01:11:21.095Z,1.28
2018-02-06T01:13:49.649Z,0.86
2018-02-06T01:16:18.002Z,0.72
2018-02-06T01:18:46.358Z,0.76
2018-02-06T01:21:14.709Z,0.93
2018-02-06T01:23:43.833Z,1.04
2018-02-06T01:26:12.168Z,1.05
2018-02-06T01:28:41.533Z,1.20
2018-02-06T01:31:09.861Z,1.16
2018-02-06T01:33:38.171Z,1.14
2018-02-06T01:36:06.614Z,1.12
2018-02-06T01:38:35.688Z,1.03
2018-02-06T01:41:03.987Z,0.99
2018-02-06T01:43:32.349Z,0.69
2018-02-06T01:46:00.684Z,0.45
2018-02-06T01:48:29.004Z,0.45
2018-02-06T01:50:57.428Z,0.74
2018-02-06T01:53:25.779Z,0.86
2018-02-06T01:55:54.094Z,0.99
2018-02-06T01:58:22.764Z,0.93
2018-02-06T02:00:51.068Z,0.99
2018-02-06T02:03:19.449Z,0.87
2018-02-06T02:05:47.769Z,1.09
2018-02-06T02:08:16.076Z,1.07
2018-02-06T02:10:45.168Z,1.06
2018-02-06T02:13:13.544Z,1.06
2018-02-06T02:15:41.925Z,1.02
2018-02-06T02:18:10.423Z,0.95
2018-02-06T02:20:39.043Z,0.84
2018-02-06T02:23:07.408Z,0.70
2018-02-06T02:25:35.764Z,0.76
2018-02-06T02:28:04.085Z,0.88
2018-02-06T02:30:32.484Z,0.75
2018-02-06T02:33:00.804Z,0.65
2018-02-06T02:35:29.147Z,0.68
2018-02-06T02:37:58.225Z,0.84
2018-02-06T02:40:26.761Z,0.89
2018-02-06T04:39:13.295Z,0.08
2018-02-06T04:41:41.617Z,0.14
2018-02-06T04:44:10.680Z,0.17
2018-02-06T04:46:38.977Z,0.06
2018-02-06T04:49:07.339Z,0.12
2018-02-06T04:51:35.674Z,0.25
2018-02-06T04:54:04.004Z,0.11
2018-02-06T04:56:33.416Z,0.21
2018-02-06T04:59:01.708Z,0.28
2018-02-06T05:01:30.032Z,0.28
2018-02-06T05:03:58.357Z,0.38
2018-02-06T05:06:26.664Z,0.32
2018-02-06T05:08:54.983Z,0.26
2018-02-06T05:11:23.318Z,0.26
2018-02-06T05:13:52.632Z,0.24
2018-02-06T05:16:20.943Z,0.02
2018-02-06T05:18:49.702Z,0.04
2018-02-06T05:21:18.068Z,0.12
2018-02-06T05:23:46.411Z,0.05
2018-02-06T05:26:15.536Z,0.05
2018-02-06T05:28:43.856Z,-0.13
2018-02-06T05:31:12.158Z,0.02
2018-02-06T05:33:40.517Z,-0.17
2018-02-06T05:36:08.842Z,-0.07
2018-02-06T05:38:37.198Z,-0.02
2018-02-06T05:41:05.896Z,-0.26
2018-02-06T05:43:34.222Z,-0.52
2018-02-06T05:46:02.567Z,-0.34
2018-02-06T05:48:31.663Z,-0.22
2018-02-06T05:51:00.744Z,-0.29
2018-02-06T05:53:29.831Z,-0.14
2018-02-06T05:55:58.171Z,-0.04
2018-02-06T05:58:26.467Z,-0.06
2018-02-06T06:00:54.909Z,-0.07
2018-02-06T06:03:23.420Z,-0.04
2018-02-06T06:05:51.923Z,-0.11
2018-02-06T06:08:20.354Z,-0.22
2018-02-06T06:10:48.743Z,-0.31
2018-02-06T06:13:17.136Z,-0.44
2018-02-06T06:15:45.483Z,-0.41
2018-02-06T06:18:13.832Z,-0.32
2018-02-06T06:20:42.224Z,-0.34
2018-02-06T06:23:11.372Z,-0.43
2018-02-06T06:25:40.018Z,-0.23
2018-02-06T06:28:08.462Z,-0.36
2018-02-06T06:30:36.779Z,-0.41
2018-02-06T06:33:05.124Z,-0.38
2018-02-06T06:35:33.515Z,-0.36
2018-02-06T06:38:02.665Z,-0.45
2018-02-06T06:40:31.093Z,-0.38
2018-02-06T06:42:59.468Z,-0.34
2018-02-06T06:45:27.836Z,-0.52
2018-02-06T06:47:56.725Z,-0.45
2018-02-06T06:50:25.208Z,-0.26
2018-02-06T06:52:53.574Z,-0.18
2018-02-06T06:55:21.909Z,-0.35
2018-02-06T06:57:50.247Z,-0.26
2018-02-06T07:00:18.549Z,-0.26
2018-02-06T07:02:47.696Z,-0.29
2018-02-06T07:05:16.010Z,-0.24
2018-02-06T07:07:44.395Z,-0.15
2018-02-06T07:10:13.032Z,-0.25
2018-02-06T07:12:41.364Z,-0.46
2018-02-06T07:15:09.683Z,-0.62
2018-02-06T07:17:38.037Z,-0.64
2018-02-06T07:20:06.444Z,-0.71
2018-02-06T07:22:35.576Z,-0.46
2018-02-06T07:25:03.928Z,-0.46
2018-02-06T07:27:32.262Z,-0.21
2018-02-06T07:30:01.356Z,-0.09
2018-02-06T07:32:29.999Z,0.94
2018-02-06T07:34:58.339Z,2.42
2018-02-06T07:37:26.707Z,3.62
2018-02-06T07:39:55.060Z,4.97
2018-02-06T07:42:23.375Z,6.40
2018-02-06T07:44:51.720Z,7.12
2018-02-06T07:47:20.046Z,7.59
2018-02-06T07:49:48.360Z,7.85
2018-02-06T07:52:16.683Z,7.31
2018-02-06T07:54:45.515Z,8.47
2018-02-06T07:57:13.809Z,8.68
2018-02-06T07:59:42.103Z,8.81
2018-02-06T08:02:11.450Z,8.33
2018-02-06T08:04:39.808Z,7.99
2018-02-06T08:07:08.211Z,8.80
2018-02-06T08:09:36.605Z,7.93
2018-02-06T08:12:04.950Z,8.27
2018-02-06T08:14:33.267Z,9.24
2018-02-06T08:17:02.513Z,10.49
2018-02-06T08:19:30.832Z,12.10
2018-02-06T08:21:59.170Z,13.64
2018-02-06T08:24:28.281Z,13.82
2018-02-06T08:26:56.637Z,12.89
2018-02-06T08:29:24.953Z,12.84
2018-02-06T08:31:53.283Z,12.86
2018-02-06T08:34:21.636Z,13.19
2018-02-06T08:36:49.952Z,14.13
2018-02-06T08:39:19.207Z,15.88
2018-02-06T08:41:47.556Z,16.16
2018-02-06T08:44:15.896Z,15.45
2018-02-06T08:46:45.067Z,15.12
2018-02-06T08:49:13.387Z,16.01
2018-02-06T08:51:42.534Z,14.76
2018-02-06T08:54:11.655Z,15.04
2018-02-06T08:56:39.973Z,15.74
2018-02-06T08:59:08.315Z,16.37
2018-02-06T09:01:36.853Z,14.76
2018-02-06T09:04:05.217Z,15.58
2018-02-06T09:06:33.565Z,14.13
2018-02-06T09:09:02.080Z,13.31
2018-02-06T09:11:30.729Z,14.06
2018-02-06T09:13:59.058Z,14.95
2018-02-06T09:16:27.733Z,14.52
2018-02-06T09:18:56.014Z,13.46
2018-02-06T09:21:24.392Z,14.34
2018-02-06T09:23:53.556Z,11.18
2018-02-06T09:26:21.870Z,12.16
2018-02-06T09:28:50.219Z,13.20
2018-02-06T09:31:19.318Z,14.75
2018-02-06T09:33:48.420Z,14.21
2018-02-06T09:36:16.757Z,12.52
2018-02-06T09:38:45.447Z,12.70
2018-02-06T09:41:13.744Z,12.37
2018-02-06T09:43:42.054Z,12.92
2018-02-06T09:46:10.737Z,12.17
2018-02-06T09:48:39.041Z,12.68
2018-02-06T09:51:07.511Z,11.84
2018-02-06T09:53:35.873Z,12.91
2018-02-06T09:56:04.278Z,12.49
2018-02-06T09:58:32.630Z,14.61
2018-02-06T10:01:00.980Z,14.93
2018-02-06T10:03:29.415Z,15.43
2018-02-06T10:05:57.736Z,14.53
2018-02-06T10:08:26.631Z,13.79
2018-02-06T10:10:55.799Z,12.08
2018-02-06T10:13:24.133Z,10.94
2018-02-06T10:15:52.521Z,13.04
2018-02-06T10:18:20.851Z,15.01
2018-02-06T10:20:49.184Z,14.16
2018-02-06T10:23:17.496Z,15.77
2018-02-06T10:25:45.817Z,15.05
2018-02-06T10:28:14.976Z,14.09
2018-02-06T10:30:43.569Z,11.26
2018-02-06T10:33:11.900Z,12.04
2018-02-06T10:35:40.211Z,14.59
2018-02-06T10:38:08.552Z,15.91
2018-02-06T10:40:36.870Z,17.24
2018-02-06T10:43:05.204Z,14.47
2018-02-06T10:45:33.540Z,13.33
2018-02-06T10:48:01.879Z,15.58
2018-02-06T10:50:30.208Z,16.04
2018-02-06T10:52:58.887Z,16.71
2018-02-06T10:55:27.219Z,13.57
2018-02-06T10:57:55.544Z,11.16
2018-02-06T11:00:23.896Z,8.34
2018-02-06T11:02:52.222Z,10.38
2018-02-06T11:05:20.536Z,11.17
2018-02-06T11:07:48.880Z,12.23
2018-02-06T11:10:17.996Z,13.22
2018-02-06T11:12:46.351Z,14.13
2018-02-06T11:15:15.046Z,16.38
2018-02-06T11:17:44.132Z,13.94
2018-02-06T11:20:13.227Z,14.76
2018-02-06T11:22:41.570Z,14.31
2018-02-06T11:25:09.894Z,13.51
2018-02-06T11:27:38.976Z,13.66
2018-02-06T11:30:07.316Z,15.21
2018-02-06T11:32:35.665Z,13.04
2018-02-06T11:35:03.971Z,13.76
2018-02-06T11:37:32.457Z,14.66
2018-02-06T11:40:01.484Z,12.66
2018-02-06T11:42:29.791Z,12.64
2018-02-06T11:44:58.466Z,12.99
2018-02-06T11:47:27.551Z,14.09
2018-02-06T11:49:55.854Z,15.21
2018-02-06T11:52:24.220Z,16.58
2018-02-06T11:54:53.315Z,14.09
2018-02-06T11:57:22.408Z,16.22
2018-02-06T11:59:51.985Z,15.15
2018-02-06T12:02:20.284Z,14.83
2018-02-06T12:04:48.567Z,15.14
2018-02-06T12:07:16.946Z,14.76
2018-02-06T12:09:46.008Z,16.41
2018-02-06T12:12:14.304Z,16.12
2018-02-06T12:14:42.660Z,14.16
2018-02-06T12:17:10.989Z,15.57
2018-02-06T12:19:40.044Z,14.65
2018-02-06T12:22:08.940Z,14.42
2018-02-06T12:24:37.255Z,14.60
2018-02-06T12:27:05.624Z,14.37
2018-02-06T12:29:33.929Z,14.92
2018-02-06T12:32:02.240Z,15.47
2018-02-06T12:34:30.552Z,15.16
2018-02-06T12:36:59.636Z,17.19
2018-02-06T12:39:28.209Z,17.50
2018-02-06T12:41:56.517Z,16.98
2018-02-06T12:44:26.492Z,17.23
2018-02-06T12:46:54.848Z,17.54
2018-02-06T12:49:23.166Z,15.40
2018-02-06T12:51:51.839Z,14.52
2018-02-06T12:54:20.985Z,14.00
2018-02-06T12:56:49.383Z,13.74
2018-02-06T12:59:17.707Z,12.94
2018-02-06T13:01:46.016Z,13.94
2018-02-06T13:04:15.095Z,13.15
2018-02-06T13:06:44.737Z,13.24
2018-02-06T13:09:13.063Z,11.85
2018-02-06T13:11:41.396Z,12.59
2018-02-06T13:14:09.721Z,15.00
2018-02-06T13:16:38.016Z,15.07
2018-02-06T13:19:07.106Z,14.89
2018-02-06T13:21:35.442Z,13.97
2018-02-06T13:24:03.734Z,13.57
2018-02-06T13:26:32.041Z,16.20
2018-02-06T13:29:00.915Z,15.72
2018-02-06T13:31:29.204Z,13.55
2018-02-06T13:33:57.541Z,12.99
2018-02-06T13:36:25.865Z,14.01
2018-02-06T13:38:54.245Z,13.67
2018-02-06T13:41:22.565Z,14.40
2018-02-06T13:43:50.949Z,12.30
2018-02-06T13:46:19.530Z,10.50
2018-02-06T13:48:47.857Z,10.91
2018-02-06T13:51:16.492Z,11.57
2018-02-06T13:53:44.799Z,11.59
2018-02-06T13:56:13.094Z,12.26
2018-02-06T13:58:41.437Z,10.99
2018-02-06T14:01:09.776Z,11.78
2018-02-06T14:03:38.878Z,11.50
2018-02-06T14:06:08.008Z,10.93
2018-02-06T14:08:36.330Z,11.03
2018-02-06T14:11:05.420Z,11.58
2018-02-06T14:13:33.979Z,11.43
2018-02-06T14:16:02.296Z,10.93
2018-02-06T14:18:30.589Z,10.83
2018-02-06T14:20:59.028Z,11.80
2018-02-06T14:23:28.147Z,10.13
2018-02-06T14:25:56.530Z,11.30
2018-02-06T14:28:25.677Z,11.68
2018-02-06T14:30:53.981Z,10.26
2018-02-06T14:33:22.369Z,10.44
2018-02-06T14:35:51.061Z,10.72
2018-02-06T14:38:19.404Z,10.63
2018-02-06T14:40:47.727Z,11.32
2018-02-06T14:43:16.888Z,11.29
2018-02-06T14:45:45.219Z,11.31
2018-02-06T14:48:13.823Z,12.27
2018-02-06T14:50:42.218Z,10.98
2018-02-06T14:53:10.764Z,8.74
2018-02-06T14:55:39.873Z,7.09
2018-02-06T14:58:08.504Z,6.62
2018-02-06T15:00:36.828Z,5.76
2018-02-06T15:03:05.125Z,5.60
2018-02-06T15:05:33.546Z,5.42
2018-02-06T15:08:01.864Z,5.32
2018-02-06T15:10:30.180Z,5.19
2018-02-06T15:12:58.510Z,4.95
2018-02-06T15:15:26.855Z,4.78
2018-02-06T15:17:55.169Z,4.98
2018-02-06T15:20:24.648Z,4.73
2018-02-06T15:22:52.992Z,4.48
2018-02-06T15:25:21.304Z,4.41
2018-02-06T15:27:49.742Z,4.03
2018-02-06T15:30:18.073Z,4.07
2018-02-06T15:32:46.406Z,4.07
2018-02-06T15:35:14.732Z,4.11
2018-02-06T15:37:43.165Z,4.15
2018-02-06T15:40:11.476Z,3.84
2018-02-06T15:42:40.347Z,3.85
2018-02-06T15:45:08.691Z,3.89
2018-02-06T15:47:37.065Z,3.93
2018-02-06T15:50:06.217Z,3.52
2018-02-06T15:52:34.729Z,3.36
2018-02-06T15:55:03.054Z,3.01
2018-02-06T15:57:31.365Z,3.19
2018-02-06T15:59:59.684Z,3.48
2018-02-06T16:02:28.005Z,3.16
2018-02-06T16:04:56.435Z,3.07
2018-02-06T16:07:24.987Z,3.04
2018-02-06T16:09:54.249Z,3.12
2018-02-06T16:12:22.864Z,3.10
2018-02-06T16:14:51.220Z,3.14
2018-02-06T16:17:19.556Z,3.16
2018-02-06T16:19:48.690Z,3.13
2018-02-06T16:22:17.024Z,2.99
2018-02-06T16:24:45.339Z,2.96
2018-02-06T16:27:14.206Z,2.84
2018-02-06T16:29:42.521Z,2.75
2018-02-06T16:32:10.830Z,2.84
2018-02-06T16:34:39.264Z,3.00
2018-02-06T16:37:07.568Z,2.61
2018-02-06T16:39:35.856Z,2.71
2018-02-06T16:42:04.221Z,2.56
2018-02-06T16:44:32.577Z,2.69
2018-02-06T16:47:00.895Z,2.75
2018-02-06T16:49:29.551Z,2.82
2018-02-06T16:51:57.853Z,2.92
2018-02-06T16:54:26.164Z,2.89
2018-02-06T16:56:55.277Z,2.86
2018-02-06T16:59:24.361Z,2.81
2018-02-06T17:01:53.433Z,2.71
2018-02-06T17:04:21.772Z,2.74
2018-02-06T17:06:50.123Z,2.94
2018-02-06T17:09:18.428Z,3.06
2018-02-06T17:11:47.071Z,3.20
2018-02-06T17:14:15.425Z,3.08
2018-02-06T17:16:43.741Z,3.03
2018-02-06T17:19:12.173Z,3.02
2018-02-06T17:21:40.624Z,2.96
2018-02-06T17:24:08.948Z,2.96
2018-02-06T17:26:37.281Z,2.91
2018-02-06T17:29:05.604Z,2.95
2018-02-06T17:31:33.937Z,2.99
2018-02-06T17:34:02.782Z,2.99
2018-02-06T17:36:31.109Z,3.02
2018-02-06T17:38:59.426Z,2.97
2018-02-06T17:41:27.770Z,2.87
2018-02-06T17:43:56.313Z,2.84
2018-02-06T17:46:25.419Z,2.79
2018-02-06T17:48:53.740Z,2.57
2018-02-06T17:51:22.043Z,2.47
2018-02-06T17:53:50.377Z,2.39
2018-02-06T17:56:18.907Z,2.50
2018-02-06T17:58:47.242Z,2.40
2018-02-06T18:01:15.540Z,2.54
2018-02-06T18:03:43.936Z,2.32
2018-02-06T18:06:12.258Z,2.48
2018-02-06T18:08:40.571Z,2.26
2018-02-06T18:11:08.914Z,2.36
2018-02-06T18:13:38.125Z,2.29
2018-02-06T18:16:06.441Z,2.41
2018-02-06T18:18:35.058Z,2.25
2018-02-06T18:21:03.373Z,2.20
2018-02-06T18:23:31.719Z,2.04
2018-02-06T18:26:00.132Z,2.06
2018-02-06T18:28:28.457Z,2.11
2018-02-06T18:30:56.771Z,1.95
2018-02-06T18:33:25.152Z,1.91
2018-02-06T18:35:53.462Z,1.96
2018-02-06T18:38:21.799Z,1.87
2018-02-06T18:40:50.432Z,1.85
2018-02-06T18:43:18.768Z,1.74
2018-02-06T18:45:47.102Z,1.77
2018-02-06T18:48:15.454Z,1.74
2018-02-06T18:50:43.743Z,1.88
2018-02-06T18:53:12.105Z,1.82
2018-02-06T18:55:40.456Z,1.83
2018-02-06T18:58:08.779Z,1.86
2018-02-06T19:00:37.118Z,1.89
2018-02-06T19:03:05.869Z,2.10
2018-02-06T19:05:34.991Z,2.18
2018-02-06T19:08:03.337Z,2.17
2018-02-06T19:10:31.681Z,2.07
2018-02-06T19:13:00.015Z,2.13
2018-02-06T19:15:28.329Z,2.16
2018-02-06T19:17:56.675Z,2.22
2018-02-06T19:20:25.917Z,2.26
2018-02-06T19:22:54.945Z,2.14
2018-02-06T19:25:24.263Z,2.04
2018-02-06T19:27:52.607Z,2.06
2018-02-06T19:33:37.301Z,1.87
2018-02-06T19:36:05.621Z,1.90
2018-02-06T19:38:33.961Z,2.06
2018-02-06T19:41:02.654Z,2.03
2018-02-06T19:43:30.957Z,1.80
2018-02-06T19:46:00.285Z,1.97
2018-02-06T19:48:28.620Z,1.99
2018-02-06T19:50:59.253Z,1.91
2018-02-06T19:53:27.629Z,1.93
2018-02-06T19:55:55.968Z,1.73
2018-02-06T19:58:24.321Z,1.85
2018-02-06T20:00:52.651Z,1.80
2018-02-06T20:03:21.457Z,1.82
2018-02-06T20:05:49.797Z,1.89
2018-02-06T20:08:18.910Z,1.83
2018-02-06T20:10:47.259Z,1.81
2018-02-06T20:13:15.616Z,1.80
2018-02-06T20:15:43.930Z,1.85
2018-02-06T20:18:12.292Z,1.87
2018-02-06T20:20:40.608Z,1.85
2018-02-06T20:23:08.923Z,1.78
2018-02-06T20:25:38.165Z,1.80
2018-02-06T20:28:07.390Z,1.84
2018-02-06T20:30:36.632Z,1.74
2018-02-06T20:33:05.961Z,1.62
2018-02-06T20:35:34.281Z,1.60
2018-02-06T20:38:03.383Z,1.59
2018-02-06T20:40:33.017Z,1.56
2018-02-06T20:43:02.140Z,1.55
2018-02-06T20:45:30.516Z,1.44
2018-02-06T20:47:59.227Z,1.47
2018-02-06T20:50:27.576Z,1.57
2018-02-06T20:52:55.913Z,1.40
2018-02-06T20:55:25.039Z,1.31
2018-02-06T20:57:53.359Z,1.33
2018-02-06T21:00:21.914Z,1.26
2018-02-06T21:02:50.299Z,1.38
2018-02-06T21:05:18.613Z,1.34
2018-02-06T21:07:46.998Z,1.34
2018-02-06T21:10:16.184Z,1.45
2018-02-06T21:12:44.545Z,1.42
2018-02-06T21:15:13.637Z,1.23
2018-02-06T21:17:41.988Z,1.18
2018-02-06T21:20:10.386Z,1.01
2018-02-06T21:22:38.740Z,1.09
2018-02-06T21:25:07.079Z,1.02
2018-02-06T21:27:35.399Z,1.12
2018-02-06T21:30:03.711Z,1.18
2018-02-06T21:32:32.216Z,1.30
2018-02-06T21:35:00.536Z,1.26
2018-02-06T21:37:28.876Z,1.28
2018-02-06T21:39:57.294Z,1.25
2018-02-06T21:42:25.695Z,1.27
2018-02-06T21:44:54.033Z,1.19
2018-02-06T21:47:22.397Z,1.25
2018-02-06T21:49:50.841Z,1.11
2018-02-06T21:52:19.187Z,1.32
2018-02-06T21:54:47.927Z,1.06
2018-02-06T21:57:16.268Z,1.23
2018-02-06T21:59:44.604Z,1.20
2018-02-06T22:02:13.015Z,1.28
2018-02-06T22:04:41.364Z,1.15
2018-02-06T22:07:09.722Z,1.13
2018-02-06T22:09:38.866Z,1.00
2018-02-06T22:12:07.220Z,1.00
2018-02-06T22:14:35.623Z,0.94
2018-02-06T22:17:05.268Z,0.98
2018-02-06T22:19:34.362Z,1.10
2018-02-06T22:22:02.750Z,1.21
2018-02-06T22:24:31.137Z,1.13
2018-02-06T22:26:59.463Z,1.33
2018-02-06T22:29:27.802Z,1.14
2018-02-06T22:31:56.177Z,1.02
2018-02-06T22:34:24.504Z,1.03
2018-02-06T22:36:52.861Z,1.18
2018-02-06T22:39:22.056Z,1.31
2018-02-06T22:41:51.172Z,1.32
2018-02-06T22:44:19.516Z,1.25
2018-02-06T22:46:47.875Z,1.06
2018-02-06T22:49:16.308Z,1.01
2018-02-06T22:51:44.653Z,0.89
2018-02-06T22:54:13.061Z,0.85
2018-02-06T22:56:41.444Z,0.77
2018-02-06T22:59:09.804Z,1.02
2018-02-06T23:01:38.673Z,1.07
2018-02-06T23:04:07.049Z,1.02
2018-02-06T23:06:35.368Z,1.18
2018-02-06T23:09:03.764Z,1.11
2018-02-06T23:11:32.084Z,1.13
2018-02-06T23:14:00.451Z,1.10
2018-02-06T23:16:28.949Z,1.09
2018-02-06T23:18:57.353Z,0.99
2018-02-06T23:21:25.732Z,0.82
2018-02-06T23:23:54.373Z,0.90
2018-02-06T23:26:22.759Z,0.81
2018-02-06T23:28:51.166Z,0.84
2018-02-06T23:31:19.565Z,0.93
2018-02-06T23:33:48.726Z,1.05
2018-02-06T23:36:17.131Z,1.00
2018-02-06T23:38:45.475Z,1.01
2018-02-06T23:41:13.939Z,0.88
2018-02-06T23:43:42.380Z,0.79
2018-02-06T23:46:11.943Z,0.83
2018-02-06T23:48:40.426Z,0.96
2018-02-06T23:51:08.723Z,0.96
2018-02-06T23:53:37.308Z,0.76
2018-02-06T23:56:06.486Z,0.80
2018-02-06T23:58:34.877Z,0.59
